Capt. Robert J. Banta — WDI3481 — position and weather

sailwx.info

Track history (hours):
 
Tides and Currents Weather Stations Pressure Air Temp Water Temp Dewpoint Dewpoint Depression Visibility Wind Speed Wind Dir Waves Ship Positions

Capt. Robert J. Banta

Owner: Chem Carriers Towing LLC, Sunshine, LA. More information available from US FCC via Universal Licensing System and Coast Guard Vessel Documentation Center.

Last reported at 2018-Apr-26 08:12 UTC. Time now 2018-Apr-26 11:13 UTC.
Position N 29°56' W 092°58'.

Length 26 m; draft 2.6 m.

Type: Towing. MMSI: 367688770.

Date/timePositionNaut miles runAvg speedWind from/ knotsBaromVisibWave heightAir tempDewpointWater temp
2018-Apr-26 08:12N 29°56' W 092°58'2 4.5
2018-Apr-26 07:42N 29°56' W 093°01'1 4.5
2018-Apr-26 07:30N 29°56' W 093°02'2 4.6
2018-Apr-26 07:00N 29°56' W 093°05'2 4.5
2018-Apr-26 06:30N 29°56' W 093°07'2 4.5
2018-Apr-26 06:00N 29°56' W 093°10'2 4.6
2018-Apr-26 05:30N 29°58' W 093°11'2 4.7
2018-Apr-26 05:00N 29°60' W 093°13'2 4.1
2018-Apr-26 04:30N 30°02' W 093°14'2 4.0
2018-Apr-26 04:00N 30°03' W 093°16'1 2.2
2018-Apr-26 03:30N 30°04' W 093°16'2 3.3
2018-Apr-26 03:00N 30°05' W 093°18'1 1.8
2018-Apr-26 02:30N 30°06' W 093°18'2 3.2
2018-Apr-26 02:00N 30°05' W 093°20'2 4.0
2018-Apr-26 01:30N 30°04' W 093°21'2 3.9
2018-Apr-26 01:00N 30°04' W 093°24'0 0.2
2018-Apr-26 00:30N 30°04' W 093°24'1 1.2
2018-Apr-26 00:00N 30°04' W 093°24'2 3.9
2018-Apr-25 23:30N 30°04' W 093°27'3 5.5
2018-Apr-25 23:00N 30°04' W 093°30'3 5.5
2018-Apr-25 22:30N 30°04' W 093°33'3 5.6
2018-Apr-25 22:00N 30°04' W 093°36'3 6.2
2018-Apr-25 21:30N 30°04' W 093°40'3 5.3
2018-Apr-25 21:00N 30°03' W 093°43'3 5.7
2018-Apr-25 20:30N 30°01' W 093°45'3 6.4
2018-Apr-25 20:00N 29°59' W 093°48'2 4.9
2018-Apr-25 19:30N 29°58' W 093°51'2 4.9
2018-Apr-25 19:00N 29°56' W 093°52'3 6.6
2018-Apr-25 18:30N 29°54' W 093°54'3 6.1
2018-Apr-25 18:00N 29°51' W 093°57'2 4.5
2018-Apr-25 17:30N 29°49' W 093°58'1 1.2
2018-Apr-25 17:00N 29°49' W 093°59'0 0.0
2018-Apr-25 16:30N 29°49' W 093°59'0 0.2
2018-Apr-25 16:00N 29°49' W 093°59'2 4.7
2018-Apr-25 15:30N 29°47' W 094°01'3 5.1
2018-Apr-25 15:00N 29°46' W 094°03'2 5.0
2018-Apr-25 14:30N 29°44' W 094°05'3 5.1
2018-Apr-25 14:00N 29°43' W 094°08'2 5.0
2018-Apr-25 13:30N 29°41' W 094°10'3 5.0
2018-Apr-25 13:00N 29°41' W 094°13'2 4.9
2018-Apr-25 12:30N 29°39' W 094°15'2 4.3
2018-Apr-25 12:00N 29°38' W 094°17'2 4.7
2018-Apr-25 11:30N 29°37' W 094°20'2 3.8
2018-Apr-25 11:00N 29°36' W 094°22'2 3.2
2018-Apr-25 10:30N 29°36' W 094°23'2 3.5
2018-Apr-25 10:00N 29°35' W 094°25'1 2.6
2018-Apr-25 09:30N 29°34' W 094°26'2 3.2
2018-Apr-25 09:00N 29°33' W 094°28'2 3.5
2018-Apr-25 08:30N 29°32' W 094°29'2 4.5
2018-Apr-25 08:00N 29°31' W 094°31'2 4.6
2018-Apr-25 07:30N 29°30' W 094°34'2 3.8
2018-Apr-25 07:00N 29°29' W 094°36'2 4.4
2018-Apr-25 06:30N 29°28' W 094°38'2 4.6
2018-Apr-25 06:00N 29°27' W 094°41'2 4.6
2018-Apr-25 05:30N 29°26' W 094°43'2 3.3
2018-Apr-25 05:00N 29°25' W 094°44'2 4.1
2018-Apr-25 04:26N 29°23' W 094°46'2 5.3
2018-Apr-25 04:00N 29°22' W 094°48'2 4.7
2018-Apr-25 03:30N 29°22' W 094°51'2 4.8
2018-Apr-25 03:00N 29°22' W 094°53'0 0.1
2018-Apr-25 02:29N 29°22' W 094°53'0 0.0
2018-Apr-24 13:49N 29°22' W 094°53'0 0.0
2018-Apr-24 13:09N 29°22' W 094°53'0 0.1
2018-Apr-24 12:53N 29°22' W 094°53'0 0.0
2018-Apr-23 14:04N 29°22' W 094°53'0 0.2
2018-Apr-23 13:59N 29°22' W 094°53'0 0.1
2018-Apr-23 13:28N 29°22' W 094°53'1 0.9
2018-Apr-23 12:53N 29°23' W 094°53'3 7.7
2018-Apr-23 12:30N 29°22' W 094°50'2 2.7
2018-Apr-23 11:57N 29°23' W 094°49'4 8.5
2018-Apr-23 11:30N 29°27' W 094°51'4 8.3
2018-Apr-23 11:00N 29°31' W 094°53'4 8.1
2018-Apr-23 10:30N 29°34' W 094°55'4 7.9
2018-Apr-23 10:00N 29°37' W 094°58'4 8.3
2018-Apr-23 09:30N 29°41' W 094°59'4 7.2
2018-Apr-23 09:00N 29°44' W 095°02'3 6.7
2018-Apr-23 08:30N 29°45' W 095°05'3 6.3
2018-Apr-23 08:00N 29°44' W 095°09'1 2.0
2018-Apr-23 07:30N 29°44' W 095°10'0 0.0
2018-Apr-22 22:46N 29°44' W 095°10'0 0.0
2018-Apr-22 22:30N 29°44' W 095°10'0 0.2
2018-Apr-22 22:00N 29°44' W 095°10'0 0.1
2018-Apr-22 21:30N 29°44' W 095°10'0 0.0
2018-Apr-22 21:00N 29°44' W 095°10'0 0.1
2018-Apr-22 20:30N 29°44' W 095°10'0 0.1
2018-Apr-22 19:57N 29°44' W 095°10'0 0.1
2018-Apr-22 19:30N 29°44' W 095°10'0 0.0
2018-Apr-22 19:00N 29°44' W 095°10'0 0.0
2018-Apr-22 17:41N 29°44' W 095°10'0 0.0
2018-Apr-22 12:50N 29°44' W 095°10'0 0.0
2018-Apr-22 03:07N 29°44' W 095°10'0 0.0
2018-Apr-22 02:57N 29°44' W 095°10'0 0.0
2018-Apr-22 02:30N 29°44' W 095°10'0 0.5
2018-Apr-22 01:59N 29°45' W 095°10'3 5.1
2018-Apr-22 01:30N 29°44' W 095°07'2 3.8
2018-Apr-22 00:57N 29°46' W 095°05'2 3.6
2018-Apr-22 00:27N 29°47' W 095°04'0 0.3
2018-Apr-21 23:57N 29°47' W 095°04'0 0.0
2018-Apr-21 23:28N 29°47' W 095°04'0 0.1
2018-Apr-21 22:55N 29°47' W 095°04'2 3.7
2018-Apr-21 22:30N 29°46' W 095°05'1 0.1
2018-Apr-21 05:56N 29°47' W 095°06'0 0.0
2018-Apr-21 03:38N 29°47' W 095°06'0 0.0
2018-Apr-21 03:24N 29°47' W 095°06'0 0.0
2018-Apr-21 02:58N 29°47' W 095°06'0 0.0
2018-Apr-21 02:29N 29°47' W 095°06'0 0.0
2018-Apr-21 02:00N 29°47' W 095°06'0 0.0
2018-Apr-20 14:48N 29°47' W 095°06'1 2.5
2018-Apr-20 14:28N 29°46' W 095°06'0 1.0
2018-Apr-20 14:00N 29°46' W 095°06'0 0.0
2018-Apr-19 04:05N 29°46' W 095°06'1 3.8
2018-Apr-19 03:53N 29°46' W 095°05'0 0.2
2018-Apr-19 02:13N 29°46' W 095°05'1 5.7
2018-Apr-19 02:00N 29°47' W 095°05'1 0.7
2018-Apr-19 00:36N 29°47' W 095°04'0 0.1
2018-Apr-19 00:30N 29°47' W 095°04'0 0.0
2018-Apr-18 23:42N 29°47' W 095°04'0 0.3
2018-Apr-18 23:29N 29°47' W 095°04'1 2.6
2018-Apr-18 23:00N 29°46' W 095°05'3 4.9
2018-Apr-18 22:30N 29°44' W 095°03'3 5.6
2018-Apr-18 22:00N 29°42' W 095°01'3 6.0
2018-Apr-18 21:30N 29°40' W 094°58'4 7.1
2018-Apr-18 21:00N 29°37' W 094°57'3 7.1
2018-Apr-18 20:30N 29°34' W 094°55'3 6.8
2018-Apr-18 20:00N 29°31' W 094°53'3 6.6
2018-Apr-18 19:30N 29°28' W 094°51'3 6.5
2018-Apr-18 18:59N 29°25' W 094°49'3 4.2
2018-Apr-18 18:16N 29°22' W 094°49'2 6.2
2018-Apr-18 17:59N 29°22' W 094°51'2 0.9
2018-Apr-18 15:28N 29°22' W 094°53'0 0.0
2018-Apr-18 14:50N 29°22' W 094°53'0 0.0
2018-Apr-18 14:30N 29°22' W 094°53'0 0.0
2018-Apr-18 14:00N 29°22' W 094°53'0 0.0
2018-Apr-18 13:24N 29°22' W 094°53'0 0.0
2018-Apr-18 13:00N 29°22' W 094°53'0 0.0
2018-Apr-18 12:30N 29°22' W 094°53'0 0.0
2018-Apr-18 12:00N 29°22' W 094°53'0 0.0
2018-Apr-18 11:20N 29°22' W 094°53'0 0.0
2018-Apr-18 10:57N 29°22' W 094°53'0 0.0
2018-Apr-18 10:29N 29°22' W 094°53'0 0.0
2018-Apr-18 10:00N 29°22' W 094°53'0 0.0
2018-Apr-18 09:26N 29°22' W 094°53'0 0.0
2018-Apr-18 08:58N 29°22' W 094°53'0 0.0
2018-Apr-18 08:16N 29°22' W 094°53'0 0.0
2018-Apr-18 08:00N 29°22' W 094°53'0 0.0
2018-Apr-18 07:30N 29°22' W 094°53'0 0.0
2018-Apr-18 07:00N 29°22' W 094°53'0 0.0
2018-Apr-18 06:30N 29°22' W 094°53'0 0.0
2018-Apr-18 05:59N 29°22' W 094°53'0 0.0
2018-Apr-18 05:04N 29°22' W 094°53'0 0.0
2018-Apr-18 05:00N 29°22' W 094°53'0 0.0
2018-Apr-18 04:30N 29°22' W 094°53'0 0.0
2018-Apr-18 04:00N 29°22' W 094°53'0 0.1
2018-Apr-18 03:30N 29°22' W 094°53'0 0.1
2018-Apr-18 03:00N 29°22' W 094°53'0 0.0
2018-Apr-18 02:29N 29°22' W 094°53'0 0.0
2018-Apr-18 02:00N 29°22' W 094°53'0 0.0
2018-Apr-18 01:29N 29°22' W 094°53'0 0.1
2018-Apr-18 01:00N 29°22' W 094°53'0 0.1
2018-Apr-18 00:26N 29°22' W 094°54'0 0.0
2018-Apr-17 23:59N 29°22' W 094°54'0 0.0
2018-Apr-17 21:23N 29°22' W 094°54'0 0.0
2018-Apr-17 17:07N 29°22' W 094°53'0 0.0
2018-Apr-17 16:37N 29°22' W 094°53'0 0.0
2018-Apr-17 16:26N 29°22' W 094°53'0 0.0
2018-Apr-17 15:58N 29°22' W 094°53'0 0.0
2018-Apr-17 15:28N 29°22' W 094°53'0 0.0
2018-Apr-17 14:56N 29°22' W 094°53'0 0.0
2018-Apr-17 14:27N 29°22' W 094°53'0 0.0
2018-Apr-17 13:58N 29°22' W 094°53'0 0.0
2018-Apr-17 13:30N 29°22' W 094°53'0 0.0
2018-Apr-17 13:00N 29°22' W 094°53'0 0.0
2018-Apr-17 12:30N 29°22' W 094°53'0 0.0
2018-Apr-17 11:58N 29°22' W 094°53'0 0.0
2018-Apr-17 11:30N 29°22' W 094°53'0 0.0
2018-Apr-17 10:54N 29°22' W 094°53'0 0.0
2018-Apr-17 10:30N 29°22' W 094°53'0 0.0
2018-Apr-17 09:59N 29°22' W 094°53'0 0.0
2018-Apr-17 09:30N 29°22' W 094°53'0 0.0
2018-Apr-17 09:00N 29°22' W 094°53'0 0.0
2018-Apr-17 08:30N 29°22' W 094°53'0 0.0
2018-Apr-17 08:00N 29°22' W 094°53'0 0.0
2018-Apr-17 07:30N 29°22' W 094°53'0 0.0
2018-Apr-17 07:00N 29°22' W 094°53'0 0.0
2018-Apr-17 06:30N 29°22' W 094°53'0 0.0
2018-Apr-17 06:00N 29°22' W 094°53'0 0.0
2018-Apr-17 05:30N 29°22' W 094°53'0 0.0
2018-Apr-17 04:57N 29°22' W 094°53'0 0.0
2018-Apr-17 04:30N 29°22' W 094°53'0 0.0
2018-Apr-17 03:59N 29°22' W 094°53'0 0.0
2018-Apr-17 03:29N 29°22' W 094°53'0 0.0
2018-Apr-17 03:00N 29°22' W 094°53'0 0.0
2018-Apr-17 02:30N 29°22' W 094°53'  
Track history (hours):
 
Tides and Currents Weather Stations Pressure Air Temp Water Temp Dewpoint Dewpoint Depression Visibility Wind Speed Wind Dir Waves Ship Positions

Capt. Robert J. Banta

Owner: Chem Carriers Towing LLC, Sunshine, LA. More information available from US FCC via Universal Licensing System and Coast Guard Vessel Documentation Center.

Last reported at 2018-Apr-26 08:12 UTC. Time now 2018-Apr-26 11:13 UTC.
Position N 29°56' W 092°58'.

Length 26 m; draft 2.6 m.

Type: Towing. MMSI: 367688770.

Date/timePositionNaut miles runAvg speedWind from/ knotsBaromVisibWave heightAir tempDewpointWater temp
2018-Apr-26 08:12N 29°56' W 092°58'2 4.5
2018-Apr-26 07:42N 29°56' W 093°01'1 4.5
2018-Apr-26 07:30N 29°56' W 093°02'2 4.6
2018-Apr-26 07:00N 29°56' W 093°05'2 4.5
2018-Apr-26 06:30N 29°56' W 093°07'2 4.5
2018-Apr-26 06:00N 29°56' W 093°10'2 4.6
2018-Apr-26 05:30N 29°58' W 093°11'2 4.7
2018-Apr-26 05:00N 29°60' W 093°13'2 4.1
2018-Apr-26 04:30N 30°02' W 093°14'2 4.0
2018-Apr-26 04:00N 30°03' W 093°16'1 2.2
2018-Apr-26 03:30N 30°04' W 093°16'2 3.3
2018-Apr-26 03:00N 30°05' W 093°18'1 1.8
2018-Apr-26 02:30N 30°06' W 093°18'2 3.2
2018-Apr-26 02:00N 30°05' W 093°20'2 4.0
2018-Apr-26 01:30N 30°04' W 093°21'2 3.9
2018-Apr-26 01:00N 30°04' W 093°24'0 0.2
2018-Apr-26 00:30N 30°04' W 093°24'1 1.2
2018-Apr-26 00:00N 30°04' W 093°24'2 3.9
2018-Apr-25 23:30N 30°04' W 093°27'3 5.5
2018-Apr-25 23:00N 30°04' W 093°30'3 5.5
2018-Apr-25 22:30N 30°04' W 093°33'3 5.6
2018-Apr-25 22:00N 30°04' W 093°36'3 6.2
2018-Apr-25 21:30N 30°04' W 093°40'3 5.3
2018-Apr-25 21:00N 30°03' W 093°43'3 5.7
2018-Apr-25 20:30N 30°01' W 093°45'3 6.4
2018-Apr-25 20:00N 29°59' W 093°48'2 4.9
2018-Apr-25 19:30N 29°58' W 093°51'2 4.9
2018-Apr-25 19:00N 29°56' W 093°52'3 6.6
2018-Apr-25 18:30N 29°54' W 093°54'3 6.1
2018-Apr-25 18:00N 29°51' W 093°57'2 4.5
2018-Apr-25 17:30N 29°49' W 093°58'1 1.2
2018-Apr-25 17:00N 29°49' W 093°59'0 0.0
2018-Apr-25 16:30N 29°49' W 093°59'0 0.2
2018-Apr-25 16:00N 29°49' W 093°59'2 4.7
2018-Apr-25 15:30N 29°47' W 094°01'3 5.1
2018-Apr-25 15:00N 29°46' W 094°03'2 5.0
2018-Apr-25 14:30N 29°44' W 094°05'3 5.1
2018-Apr-25 14:00N 29°43' W 094°08'2 5.0
2018-Apr-25 13:30N 29°41' W 094°10'3 5.0
2018-Apr-25 13:00N 29°41' W 094°13'2 4.9
2018-Apr-25 12:30N 29°39' W 094°15'2 4.3
2018-Apr-25 12:00N 29°38' W 094°17'2 4.7
2018-Apr-25 11:30N 29°37' W 094°20'2 3.8
2018-Apr-25 11:00N 29°36' W 094°22'2 3.2
2018-Apr-25 10:30N 29°36' W 094°23'2 3.5
2018-Apr-25 10:00N 29°35' W 094°25'1 2.6
2018-Apr-25 09:30N 29°34' W 094°26'2 3.2
2018-Apr-25 09:00N 29°33' W 094°28'2 3.5
2018-Apr-25 08:30N 29°32' W 094°29'2 4.5
2018-Apr-25 08:00N 29°31' W 094°31'2 4.6
2018-Apr-25 07:30N 29°30' W 094°34'2 3.8
2018-Apr-25 07:00N 29°29' W 094°36'2 4.4
2018-Apr-25 06:30N 29°28' W 094°38'2 4.6
2018-Apr-25 06:00N 29°27' W 094°41'2 4.6
2018-Apr-25 05:30N 29°26' W 094°43'2 3.3
2018-Apr-25 05:00N 29°25' W 094°44'2 4.1
2018-Apr-25 04:26N 29°23' W 094°46'2 5.3
2018-Apr-25 04:00N 29°22' W 094°48'2 4.7
2018-Apr-25 03:30N 29°22' W 094°51'2 4.8
2018-Apr-25 03:00N 29°22' W 094°53'0 0.1
2018-Apr-25 02:29N 29°22' W 094°53'0 0.0
2018-Apr-24 13:49N 29°22' W 094°53'0 0.0
2018-Apr-24 13:09N 29°22' W 094°53'0 0.1
2018-Apr-24 12:53N 29°22' W 094°53'0 0.0
2018-Apr-23 14:04N 29°22' W 094°53'0 0.2
2018-Apr-23 13:59N 29°22' W 094°53'0 0.1
2018-Apr-23 13:28N 29°22' W 094°53'1 0.9
2018-Apr-23 12:53N 29°23' W 094°53'3 7.7
2018-Apr-23 12:30N 29°22' W 094°50'2 2.7
2018-Apr-23 11:57N 29°23' W 094°49'4 8.5
2018-Apr-23 11:30N 29°27' W 094°51'4 8.3
2018-Apr-23 11:00N 29°31' W 094°53'4 8.1
2018-Apr-23 10:30N 29°34' W 094°55'4 7.9
2018-Apr-23 10:00N 29°37' W 094°58'4 8.3
2018-Apr-23 09:30N 29°41' W 094°59'4 7.2
2018-Apr-23 09:00N 29°44' W 095°02'3 6.7
2018-Apr-23 08:30N 29°45' W 095°05'3 6.3
2018-Apr-23 08:00N 29°44' W 095°09'1 2.0
2018-Apr-23 07:30N 29°44' W 095°10'0 0.0
2018-Apr-22 22:46N 29°44' W 095°10'0 0.0
2018-Apr-22 22:30N 29°44' W 095°10'0 0.2
2018-Apr-22 22:00N 29°44' W 095°10'0 0.1
2018-Apr-22 21:30N 29°44' W 095°10'0 0.0
2018-Apr-22 21:00N 29°44' W 095°10'0 0.1
2018-Apr-22 20:30N 29°44' W 095°10'0 0.1
2018-Apr-22 19:57N 29°44' W 095°10'0 0.1
2018-Apr-22 19:30N 29°44' W 095°10'0 0.0
2018-Apr-22 19:00N 29°44' W 095°10'0 0.0
2018-Apr-22 17:41N 29°44' W 095°10'0 0.0
2018-Apr-22 12:50N 29°44' W 095°10'0 0.0
2018-Apr-22 03:07N 29°44' W 095°10'0 0.0
2018-Apr-22 02:57N 29°44' W 095°10'0 0.0
2018-Apr-22 02:30N 29°44' W 095°10'0 0.5
2018-Apr-22 01:59N 29°45' W 095°10'3 5.1
2018-Apr-22 01:30N 29°44' W 095°07'2 3.8
2018-Apr-22 00:57N 29°46' W 095°05'2 3.6
2018-Apr-22 00:27N 29°47' W 095°04'0 0.3
2018-Apr-21 23:57N 29°47' W 095°04'0 0.0
2018-Apr-21 23:28N 29°47' W 095°04'0 0.1
2018-Apr-21 22:55N 29°47' W 095°04'2 3.7
2018-Apr-21 22:30N 29°46' W 095°05'1 0.1
2018-Apr-21 05:56N 29°47' W 095°06'0 0.0
2018-Apr-21 03:38N 29°47' W 095°06'0 0.0
2018-Apr-21 03:24N 29°47' W 095°06'0 0.0
2018-Apr-21 02:58N 29°47' W 095°06'0 0.0
2018-Apr-21 02:29N 29°47' W 095°06'0 0.0
2018-Apr-21 02:00N 29°47' W 095°06'0 0.0
2018-Apr-20 14:48N 29°47' W 095°06'1 2.5
2018-Apr-20 14:28N 29°46' W 095°06'0 1.0
2018-Apr-20 14:00N 29°46' W 095°06'0 0.0
2018-Apr-19 04:05N 29°46' W 095°06'1 3.8
2018-Apr-19 03:53N 29°46' W 095°05'0 0.2
2018-Apr-19 02:13N 29°46' W 095°05'1 5.7
2018-Apr-19 02:00N 29°47' W 095°05'1 0.7
2018-Apr-19 00:36N 29°47' W 095°04'0 0.1
2018-Apr-19 00:30N 29°47' W 095°04'0 0.0
2018-Apr-18 23:42N 29°47' W 095°04'0 0.3
2018-Apr-18 23:29N 29°47' W 095°04'1 2.6
2018-Apr-18 23:00N 29°46' W 095°05'3 4.9
2018-Apr-18 22:30N 29°44' W 095°03'3 5.6
2018-Apr-18 22:00N 29°42' W 095°01'3 6.0
2018-Apr-18 21:30N 29°40' W 094°58'4 7.1
2018-Apr-18 21:00N 29°37' W 094°57'3 7.1
2018-Apr-18 20:30N 29°34' W 094°55'3 6.8
2018-Apr-18 20:00N 29°31' W 094°53'3 6.6
2018-Apr-18 19:30N 29°28' W 094°51'3 6.5
2018-Apr-18 18:59N 29°25' W 094°49'3 4.2
2018-Apr-18 18:16N 29°22' W 094°49'2 6.2
2018-Apr-18 17:59N 29°22' W 094°51'2 0.9
2018-Apr-18 15:28N 29°22' W 094°53'0 0.0
2018-Apr-18 14:50N 29°22' W 094°53'0 0.0
2018-Apr-18 14:30N 29°22' W 094°53'0 0.0
2018-Apr-18 14:00N 29°22' W 094°53'0 0.0
2018-Apr-18 13:24N 29°22' W 094°53'0 0.0
2018-Apr-18 13:00N 29°22' W 094°53'0 0.0
2018-Apr-18 12:30N 29°22' W 094°53'0 0.0
2018-Apr-18 12:00N 29°22' W 094°53'0 0.0
2018-Apr-18 11:20N 29°22' W 094°53'0 0.0
2018-Apr-18 10:57N 29°22' W 094°53'0 0.0
2018-Apr-18 10:29N 29°22' W 094°53'0 0.0
2018-Apr-18 10:00N 29°22' W 094°53'0 0.0
2018-Apr-18 09:26N 29°22' W 094°53'0 0.0
2018-Apr-18 08:58N 29°22' W 094°53'0 0.0
2018-Apr-18 08:16N 29°22' W 094°53'0 0.0
2018-Apr-18 08:00N 29°22' W 094°53'0 0.0
2018-Apr-18 07:30N 29°22' W 094°53'0 0.0
2018-Apr-18 07:00N 29°22' W 094°53'0 0.0
2018-Apr-18 06:30N 29°22' W 094°53'0 0.0
2018-Apr-18 05:59N 29°22' W 094°53'0 0.0
2018-Apr-18 05:04N 29°22' W 094°53'0 0.0
2018-Apr-18 05:00N 29°22' W 094°53'0 0.0
2018-Apr-18 04:30N 29°22' W 094°53'0 0.0
2018-Apr-18 04:00N 29°22' W 094°53'0 0.1
2018-Apr-18 03:30N 29°22' W 094°53'0 0.1
2018-Apr-18 03:00N 29°22' W 094°53'0 0.0
2018-Apr-18 02:29N 29°22' W 094°53'0 0.0
2018-Apr-18 02:00N 29°22' W 094°53'0 0.0
2018-Apr-18 01:29N 29°22' W 094°53'0 0.1
2018-Apr-18 01:00N 29°22' W 094°53'0 0.1
2018-Apr-18 00:26N 29°22' W 094°54'0 0.0
2018-Apr-17 23:59N 29°22' W 094°54'0 0.0
2018-Apr-17 21:23N 29°22' W 094°54'0 0.0
2018-Apr-17 17:07N 29°22' W 094°53'0 0.0
2018-Apr-17 16:37N 29°22' W 094°53'0 0.0
2018-Apr-17 16:26N 29°22' W 094°53'0 0.0
2018-Apr-17 15:58N 29°22' W 094°53'0 0.0
2018-Apr-17 15:28N 29°22' W 094°53'0 0.0
2018-Apr-17 14:56N 29°22' W 094°53'0 0.0
2018-Apr-17 14:27N 29°22' W 094°53'0 0.0
2018-Apr-17 13:58N 29°22' W 094°53'0 0.0
2018-Apr-17 13:30N 29°22' W 094°53'0 0.0
2018-Apr-17 13:00N 29°22' W 094°53'0 0.0
2018-Apr-17 12:30N 29°22' W 094°53'0 0.0
2018-Apr-17 11:58N 29°22' W 094°53'0 0.0
2018-Apr-17 11:30N 29°22' W 094°53'0 0.0
2018-Apr-17 10:54N 29°22' W 094°53'0 0.0
2018-Apr-17 10:30N 29°22' W 094°53'0 0.0
2018-Apr-17 09:59N 29°22' W 094°53'0 0.0
2018-Apr-17 09:30N 29°22' W 094°53'0 0.0
2018-Apr-17 09:00N 29°22' W 094°53'0 0.0
2018-Apr-17 08:30N 29°22' W 094°53'0 0.0
2018-Apr-17 08:00N 29°22' W 094°53'0 0.0
2018-Apr-17 07:30N 29°22' W 094°53'0 0.0
2018-Apr-17 07:00N 29°22' W 094°53'0 0.0
2018-Apr-17 06:30N 29°22' W 094°53'0 0.0
2018-Apr-17 06:00N 29°22' W 094°53'0 0.0
2018-Apr-17 05:30N 29°22' W 094°53'0 0.0
2018-Apr-17 04:57N 29°22' W 094°53'0 0.0
2018-Apr-17 04:30N 29°22' W 094°53'0 0.0
2018-Apr-17 03:59N 29°22' W 094°53'0 0.0
2018-Apr-17 03:29N 29°22' W 094°53'0 0.0
2018-Apr-17 03:00N 29°22' W 094°53'0 0.0
2018-Apr-17 02:30N 29°22' W 094°53'  

Dump ship's entire track history